sensor_id;sensor_type;location;lat;lon;timestamp;pressure;altitude;pressure_sealevel;temperature;humidity
16431;BME280;8325;49.284;7.238;2023-08-21T04:00:39;99273.81;;;18.71;100.00
16431;BME280;8325;49.284;7.238;2023-08-21T04:04:50;99276.69;;;18.70;100.00
16431;BME280;8325;49.284;7.238;2023-08-21T04:09:02;99276.91;;;18.61;100.00
16431;BME280;8325;49.284;7.238;2023-08-21T04:13:17;99279.38;;;18.63;100.00
16431;BME280;8325;49.284;7.238;2023-08-21T04:17:37;99277.75;;;18.55;100.00
16431;BME280;8325;49.284;7.238;2023-08-21T04:21:49;99277.75;;;18.55;100.00
16431;BME280;8325;49.284;7.238;2023-08-21T04:26:01;99274.28;;;18.55;100.00
16431;BME280;8325;49.284;7.238;2023-08-21T04:30:13;99284.91;;;18.48;100.00
16431;BME280;8325;49.284;7.238;2023-08-21T04:34:25;99286.50;;;18.49;100.00
16431;BME280;8325;49.284;7.238;2023-08-21T04:38:37;99283.66;;;18.44;100.00
16431;BME280;8325;49.284;7.238;2023-08-21T04:42:49;99290.59;;;18.45;100.00
16431;BME280;8325;49.284;7.238;2023-08-21T04:47:20;99297.09;;;18.49;100.00
16431;BME280;8325;49.284;7.238;2023-08-21T04:51:34;99295.09;;;18.45;100.00
16431;BME280;8325;49.284;7.238;2023-08-21T04:55:47;99300.97;;;18.47;100.00
16431;BME280;8325;49.284;7.238;2023-08-21T04:59:59;99296.06;;;18.50;100.00
16431;BME280;8325;49.284;7.238;2023-08-21T05:04:17;99298.91;;;18.55;100.00
16431;BME280;8325;49.284;7.238;2023-08-21T05:08:32;99301.94;;;18.59;100.00
16431;BME280;8325;49.284;7.238;2023-08-21T05:12:44;99306.81;;;18.69;100.00
16431;BME280;8325;49.284;7.238;2023-08-21T05:16:57;99307.84;;;18.68;100.00
16431;BME280;8325;49.284;7.238;2023-08-21T05:21:09;99307.84;;;18.68;100.00
16431;BME280;8325;49.284;7.238;2023-08-21T05:25:21;99320.66;;;18.71;100.00
16431;BME280;8325;49.284;7.238;2023-08-21T05:29:32;99321.88;;;18.75;100.00
16431;BME280;8325;49.284;7.238;2023-08-21T05:33:44;99329.22;;;18.66;100.00
16431;BME280;8325;49.284;7.238;2023-08-21T05:37:57;99328.59;;;18.71;100.00
16431;BME280;8325;49.284;7.238;2023-08-21T05:42:09;99329.22;;;18.79;100.00
16431;BME280;8325;49.284;7.238;2023-08-21T05:46:21;99334.91;;;18.83;100.00
16431;BME280;8325;49.284;7.238;2023-08-21T05:50:33;99336.94;;;18.88;100.00
16431;BME280;8325;49.284;7.238;2023-08-21T05:54:48;99326.75;;;18.91;100.00
16431;BME280;8325;49.284;7.238;2023-08-21T05:59:00;99329.13;;;18.99;100.00
16431;BME280;8325;49.284;7.238;2023-08-21T06:03:11;99333.00;;;19.03;100.00
16431;BME280;8325;49.284;7.238;2023-08-21T06:07:40;99348.63;;;19.12;100.00
16431;BME280;8325;49.284;7.238;2023-08-21T06:11:52;99350.25;;;19.19;100.00
16431;BME280;8325;49.284;7.238;2023-08-21T06:16:03;99348.56;;;19.31;100.00
16431;BME280;8325;49.284;7.238;2023-08-21T06:20:16;99360.94;;;19.44;100.00
16431;BME280;8325;49.284;7.238;2023-08-21T06:24:30;99351.25;;;21.97;100.00
16431;BME280;8325;49.284;7.238;2023-08-21T06:28:47;99349.31;;;27.06;83.74
16431;BME280;8325;49.284;7.238;2023-08-21T06:32:58;99337.91;;;30.90;64.31
16431;BME280;8325;49.284;7.238;2023-08-21T06:37:11;99342.38;;;33.46;53.86
16431;BME280;8325;49.284;7.238;2023-08-21T06:41:24;99340.81;;;34.12;49.50
16431;BME280;8325;49.284;7.238;2023-08-21T06:45:36;99343.22;;;35.02;46.60
16431;BME280;8325;49.284;7.238;2023-08-21T06:49:48;99341.56;;;34.04;48.22
16431;BME280;8325;49.284;7.238;2023-08-21T06:54:00;99340.19;;;34.16;47.56
16431;BME280;8325;49.284;7.238;2023-08-21T06:58:11;99347.50;;;31.20;55.29
16431;BME280;8325;49.284;7.238;2023-08-21T07:02:23;99348.78;;;29.97;60.11
16431;BME280;8325;49.284;7.238;2023-08-21T07:06:34;99340.59;;;28.59;65.97
16431;BME280;8325;49.284;7.238;2023-08-21T07:10:46;99350.03;;;27.74;71.70
16431;BME280;8325;49.284;7.238;2023-08-21T07:14:58;99344.38;;;27.61;73.03
16431;BME280;8325;49.284;7.238;2023-08-21T07:19:09;99337.63;;;27.43;75.14
16431;BME280;8325;49.284;7.238;2023-08-21T07:23:21;99331.53;;;26.84;77.46
16431;BME280;8325;49.284;7.238;2023-08-21T07:27:32;99342.34;;;27.05;77.69
16431;BME280;8325;49.284;7.238;2023-08-21T07:31:45;99331.47;;;27.32;77.03
16431;BME280;8325;49.284;7.238;2023-08-21T07:36:01;99339.25;;;27.49;79.06
16431;BME280;8325;49.284;7.238;2023-08-21T07:40:13;99337.94;;;27.46;79.03
16431;BME280;8325;49.284;7.238;2023-08-21T07:44:26;99340.63;;;27.72;76.58
16431;BME280;8325;49.284;7.238;2023-08-21T07:48:37;99339.28;;;27.64;77.61
16431;BME280;8325;49.284;7.238;2023-08-21T07:52:49;99343.56;;;27.55;78.50
16431;BME280;8325;49.284;7.238;2023-08-21T07:57:01;99347.03;;;27.55;79.26
16431;BME280;8325;49.284;7.238;2023-08-21T08:01:14;99338.22;;;27.60;79.85
16431;BME280;8325;49.284;7.238;2023-08-21T08:05:29;99350.03;;;27.74;79.03
16431;BME280;8325;49.284;7.238;2023-08-21T08:09:44;99346.78;;;27.52;79.86
16431;BME280;8325;49.284;7.238;2023-08-21T08:13:58;99351.03;;;27.33;80.83
16431;BME280;8325;49.284;7.238;2023-08-21T08:18:13;99338.13;;;27.24;81.48
16431;BME280;8325;49.284;7.238;2023-08-21T08:22:25;99337.25;;;27.08;83.29
16431;BME280;8325;49.284;7.238;2023-08-21T08:26:36;99333.91;;;27.44;81.67
16431;BME280;8325;49.284;7.238;2023-08-21T08:30:48;99331.75;;;27.46;79.55
16431;BME280;8325;49.284;7.238;2023-08-21T08:34:59;99340.88;;;27.50;79.57
16431;BME280;8325;49.284;7.238;2023-08-21T08:39:11;99340.59;;;27.51;82.05
16431;BME280;8325;49.284;7.238;2023-08-21T08:43:24;99327.44;;;27.29;82.36
16431;BME280;8325;49.284;7.238;2023-08-21T08:47:36;99327.66;;;27.18;85.11
16431;BME280;8325;49.284;7.238;2023-08-21T08:51:50;99325.41;;;26.94;85.18
16431;BME280;8325;49.284;7.238;2023-08-21T08:56:02;99320.88;;;26.95;85.12
16431;BME280;8325;49.284;7.238;2023-08-21T09:00:14;99325.78;;;27.18;87.07
16431;BME280;8325;49.284;7.238;2023-08-21T09:04:25;99316.69;;;27.19;82.03
16431;BME280;8325;49.284;7.238;2023-08-21T09:08:37;99314.00;;;27.29;81.34
16431;BME280;8325;49.284;7.238;2023-08-21T09:12:48;99316.47;;;27.57;79.91
16431;BME280;8325;49.284;7.238;2023-08-21T09:17:01;99322.69;;;27.77;78.63
16431;BME280;8325;49.284;7.238;2023-08-21T09:21:19;99311.44;;;27.81;75.93
16431;BME280;8325;49.284;7.238;2023-08-21T09:25:38;99305.75;;;27.92;72.80
16431;BME280;8325;49.284;7.238;2023-08-21T09:29:50;99309.78;;;28.10;71.48
16431;BME280;8325;49.284;7.238;2023-08-21T09:34:02;99303.03;;;28.28;68.73
16431;BME280;8325;49.284;7.238;2023-08-21T09:38:18;99302.25;;;28.28;65.94
16431;BME280;8325;49.284;7.238;2023-08-21T09:42:30;99307.88;;;28.36;65.25
16431;BME280;8325;49.284;7.238;2023-08-21T09:46:42;99313.50;;;28.40;63.21
16431;BME280;8325;49.284;7.238;2023-08-21T09:50:54;99307.03;;;28.56;61.55
16431;BME280;8325;49.284;7.238;2023-08-21T09:55:06;99307.03;;;28.56;55.13
16431;BME280;8325;49.284;7.238;2023-08-21T09:59:18;99309.66;;;28.77;51.88
16431;BME280;8325;49.284;7.238;2023-08-21T10:03:31;99309.06;;;28.85;53.50
16431;BME280;8325;49.284;7.238;2023-08-21T10:07:47;99306.16;;;28.76;50.32
16431;BME280;8325;49.284;7.238;2023-08-21T10:12:02;99304.47;;;28.90;50.60
16431;BME280;8325;49.284;7.238;2023-08-21T10:16:14;99302.50;;;29.17;48.27
16431;BME280;8325;49.284;7.238;2023-08-21T10:20:26;99301.88;;;29.25;45.65
16431;BME280;8325;49.284;7.238;2023-08-21T10:24:37;99303.34;;;29.46;48.56
16431;BME280;8325;49.284;7.238;2023-08-21T10:28:59;99293.59;;;29.55;46.81
16431;BME280;8325;49.284;7.238;2023-08-21T10:33:13;99298.50;;;29.48;47.27
16431;BME280;8325;49.284;7.238;2023-08-21T10:37:26;99294.63;;;29.65;51.21
16431;BME280;8325;49.284;7.238;2023-08-21T10:41:37;99293.72;;;29.79;51.33
16431;BME280;8325;49.284;7.238;2023-08-21T10:45:55;99284.19;;;29.92;50.03
16431;BME280;8325;49.284;7.238;2023-08-21T10:50:08;99291.09;;;30.03;50.85
16431;BME280;8325;49.284;7.238;2023-08-21T10:54:20;99283.41;;;30.16;49.42
16431;BME280;8325;49.284;7.238;2023-08-21T10:58:38;99284.63;;;30.34;51.01
16431;BME280;8325;49.284;7.238;2023-08-21T11:02:50;99279.00;;;30.30;50.17
16431;BME280;8325;49.284;7.238;2023-08-21T11:07:02;99283.47;;;30.40;51.90
16431;BME280;8325;49.284;7.238;2023-08-21T11:11:16;99275.31;;;30.45;50.33
16431;BME280;8325;49.284;7.238;2023-08-21T11:15:29;99269.88;;;30.50;48.74
16431;BME280;8325;49.284;7.238;2023-08-21T11:19:42;99269.00;;;30.55;49.65
16431;BME280;8325;49.284;7.238;2023-08-21T11:23:53;99271.53;;;30.70;48.23
16431;BME280;8325;49.284;7.238;2023-08-21T11:28:05;99268.19;;;30.78;49.09
16431;BME280;8325;49.284;7.238;2023-08-21T11:32:21;99269.81;;;30.79;48.68
16431;BME280;8325;49.284;7.238;2023-08-21T11:36:36;99270.63;;;30.56;48.14
16431;BME280;8325;49.284;7.238;2023-08-21T11:41:00;99272.50;;;30.31;47.55
16431;BME280;8325;49.284;7.238;2023-08-21T11:45:12;99265.56;;;30.49;48.23
16431;BME280;8325;49.284;7.238;2023-08-21T11:49:24;99271.78;;;30.68;49.96
16431;BME280;8325;49.284;7.238;2023-08-21T11:53:40;99267.50;;;30.91;50.61
16431;BME280;8325;49.284;7.238;2023-08-21T11:57:52;99261.16;;;31.01;48.44
16431;BME280;8325;49.284;7.238;2023-08-21T12:02:14;99264.84;;;30.86;46.75
16431;BME280;8325;49.284;7.238;2023-08-21T12:06:26;99256.03;;;31.00;49.61
16431;BME280;8325;49.284;7.238;2023-08-21T12:10:40;99258.88;;;31.27;47.73
16431;BME280;8325;49.284;7.238;2023-08-21T12:14:52;99247.47;;;31.49;49.30
16431;BME280;8325;49.284;7.238;2023-08-21T12:19:04;99255.00;;;31.52;48.15
16431;BME280;8325;49.284;7.238;2023-08-21T12:23:15;99254.53;;;31.64;48.53
16431;BME280;8325;49.284;7.238;2023-08-21T12:27:27;99247.56;;;31.77;47.59
16431;BME280;8325;49.284;7.238;2023-08-21T12:31:38;99249.22;;;31.92;47.15
16431;BME280;8325;49.284;7.238;2023-08-21T12:35:50;99242.06;;;31.82;47.02
16431;BME280;8325;49.284;7.238;2023-08-21T12:40:02;99242.34;;;31.99;46.15
16431;BME280;8325;49.284;7.238;2023-08-21T12:44:14;99225.91;;;31.96;46.64
16431;BME280;8325;49.284;7.238;2023-08-21T12:48:26;99232.25;;;31.72;45.51
16431;BME280;8325;49.284;7.238;2023-08-21T12:52:37;99226.59;;;31.55;45.66
16431;BME280;8325;49.284;7.238;2023-08-21T12:56:50;99227.38;;;31.41;47.46
16431;BME280;8325;49.284;7.238;2023-08-21T13:01:01;99230.81;;;31.61;48.13
16431;BME280;8325;49.284;7.238;2023-08-21T13:05:14;99218.91;;;31.95;47.93
16431;BME280;8325;49.284;7.238;2023-08-21T13:09:27;99216.25;;;31.76;47.79
16431;BME280;8325;49.284;7.238;2023-08-21T13:13:38;99227.06;;;31.43;48.33
16431;BME280;8325;49.284;7.238;2023-08-21T13:17:50;99229.88;;;31.19;48.99
16431;BME280;8325;49.284;7.238;2023-08-21T13:22:02;99234.09;;;30.87;48.57
16431;BME280;8325;49.284;7.238;2023-08-21T13:26:13;99233.06;;;30.83;49.29
16431;BME280;8325;49.284;7.238;2023-08-21T13:30:25;99228.69;;;30.87;48.47
16431;BME280;8325;49.284;7.238;2023-08-21T13:34:36;99226.06;;;31.20;48.09
16431;BME280;8325;49.284;7.238;2023-08-21T13:38:48;99227.06;;;31.43;46.91
16431;BME280;8325;49.284;7.238;2023-08-21T13:43:00;99219.22;;;31.60;46.29
16431;BME280;8325;49.284;7.238;2023-08-21T13:47:13;99226.47;;;31.79;48.00
16431;BME280;8325;49.284;7.238;2023-08-21T13:51:25;99220.00;;;31.47;48.29
16431;BME280;8325;49.284;7.238;2023-08-21T13:55:36;99223.16;;;31.16;49.63
16431;BME280;8325;49.284;7.238;2023-08-21T13:59:50;99212.59;;;30.82;49.69
16431;BME280;8325;49.284;7.238;2023-08-21T14:04:01;99214.25;;;30.78;50.18
16431;BME280;8325;49.284;7.238;2023-08-21T14:08:16;99205.50;;;31.24;49.05
16431;BME280;8325;49.284;7.238;2023-08-21T14:12:29;99207.97;;;31.39;47.81
16431;BME280;8325;49.284;7.238;2023-08-21T14:16:41;99203.81;;;31.61;49.83
16431;BME280;8325;49.284;7.238;2023-08-21T14:20:52;99187.16;;;31.86;49.09
16431;BME280;8325;49.284;7.238;2023-08-21T14:25:04;99192.28;;;32.02;48.46
16431;BME280;8325;49.284;7.238;2023-08-21T14:29:18;99186.59;;;32.17;47.85
16431;BME280;8325;49.284;7.238;2023-08-21T14:33:30;99181.78;;;32.14;47.70
16431;BME280;8325;49.284;7.238;2023-08-21T14:37:42;99174.84;;;31.67;47.29
16431;BME280;8325;49.284;7.238;2023-08-21T14:41:57;99184.19;;;31.41;49.68
16431;BME280;8325;49.284;7.238;2023-08-21T14:46:09;99180.78;;;31.36;48.67
16431;BME280;8325;49.284;7.238;2023-08-21T14:50:21;99173.22;;;31.52;49.48
16431;BME280;8325;49.284;7.238;2023-08-21T14:54:34;99165.84;;;31.71;49.64
16431;BME280;8325;49.284;7.238;2023-08-21T14:58:47;99167.34;;;31.77;47.08
16431;BME280;8325;49.284;7.238;2023-08-21T15:02:58;99151.47;;;31.90;47.60
16431;BME280;8325;49.284;7.238;2023-08-21T15:07:11;99147.75;;;31.85;47.80
16431;BME280;8325;49.284;7.238;2023-08-21T15:11:23;99146.66;;;31.73;47.01
16431;BME280;8325;49.284;7.238;2023-08-21T15:15:35;99151.13;;;31.77;47.79
16431;BME280;8325;49.284;7.238;2023-08-21T15:19:47;99139.13;;;31.83;47.86
16431;BME280;8325;49.284;7.238;2023-08-21T15:24:01;99130.63;;;31.76;47.14
16431;BME280;8325;49.284;7.238;2023-08-21T15:28:15;99140.94;;;31.74;46.18
16431;BME280;8325;49.284;7.238;2023-08-21T15:32:27;99135.84;;;31.73;47.91
16431;BME280;8325;49.284;7.238;2023-08-21T15:36:39;99132.03;;;31.60;46.36
16431;BME280;8325;49.284;7.238;2023-08-21T15:40:50;99132.63;;;31.57;47.81
16431;BME280;8325;49.284;7.238;2023-08-21T15:45:03;99117.63;;;31.64;48.66
16431;BME280;8325;49.284;7.238;2023-08-21T15:49:15;99124.06;;;31.69;48.52
16431;BME280;8325;49.284;7.238;2023-08-21T15:53:26;99125.03;;;31.59;47.92
16431;BME280;8325;49.284;7.238;2023-08-21T15:57:38;99121.41;;;31.50;47.66
16431;BME280;8325;49.284;7.238;2023-08-21T16:01:49;99120.44;;;31.13;48.53
16431;BME280;8325;49.284;7.238;2023-08-21T16:06:01;99116.53;;;30.86;48.55
16431;BME280;8325;49.284;7.238;2023-08-21T16:10:14;99113.09;;;30.62;49.26
16431;BME280;8325;49.284;7.238;2023-08-21T16:14:26;99101.91;;;30.55;50.35
16431;BME280;8325;49.284;7.238;2023-08-21T16:18:37;99108.72;;;30.66;50.51
16431;BME280;8325;49.284;7.238;2023-08-21T16:22:49;99098.88;;;30.75;49.73
16431;BME280;8325;49.284;7.238;2023-08-21T16:27:02;99095.63;;;30.78;49.32
16431;BME280;8325;49.284;7.238;2023-08-21T16:31:15;99103.13;;;30.81;49.90
16431;BME280;8325;49.284;7.238;2023-08-21T16:35:27;99103.66;;;30.83;50.31
16431;BME280;8325;49.284;7.238;2023-08-21T16:39:38;99102.69;;;30.74;49.47
16431;BME280;8325;49.284;7.238;2023-08-21T16:43:50;99098.97;;;30.70;50.14
16431;BME280;8325;49.284;7.238;2023-08-21T16:48:02;99090.00;;;30.74;51.12
16431;BME280;8325;49.284;7.238;2023-08-21T16:52:14;99085.34;;;30.61;50.91
16431;BME280;8325;49.284;7.238;2023-08-21T16:56:25;99089.13;;;30.60;51.73
16431;BME280;8325;49.284;7.238;2023-08-21T17:00:37;99081.94;;;30.56;51.62
16431;BME280;8325;49.284;7.238;2023-08-21T17:04:49;99087.25;;;30.42;51.86
16431;BME280;8325;49.284;7.238;2023-08-21T17:09:01;99086.44;;;30.41;51.77
16431;BME280;8325;49.284;7.238;2023-08-21T17:13:12;99095.78;;;30.30;52.08
16431;BME280;8325;49.284;7.238;2023-08-21T17:17:24;99084.53;;;30.23;52.71
16431;BME280;8325;49.284;7.238;2023-08-21T17:21:36;99091.19;;;30.07;53.91
16431;BME280;8325;49.284;7.238;2023-08-21T17:25:47;99085.16;;;29.96;55.28
16431;BME280;8325;49.284;7.238;2023-08-21T17:29:59;99086.59;;;29.88;54.74
16431;BME280;8325;49.284;7.238;2023-08-21T17:34:10;99088.03;;;29.80;55.07
16431;BME280;8325;49.284;7.238;2023-08-21T17:38:22;99091.13;;;29.69;55.15
16431;BME280;8325;49.284;7.238;2023-08-21T17:42:34;99088.56;;;29.53;55.57
16431;BME280;8325;49.284;7.238;2023-08-21T17:46:46;99086.03;;;29.38;56.50
16431;BME280;8325;49.284;7.238;2023-08-21T17:50:58;99086.75;;;29.20;57.56
16431;BME280;8325;49.284;7.238;2023-08-21T17:55:10;99092.50;;;29.08;58.34
16431;BME280;8325;49.284;7.238;2023-08-21T17:59:22;99098.25;;;28.91;58.92
16431;BME280;8325;49.284;7.238;2023-08-21T18:03:34;99092.47;;;28.74;59.22
16431;BME280;8325;49.284;7.238;2023-08-21T18:07:45;99098.78;;;28.54;59.14
16431;BME280;8325;49.284;7.238;2023-08-21T18:11:57;99094.28;;;28.39;59.12
16431;BME280;8325;49.284;7.238;2023-08-21T18:16:09;99090.34;;;28.21;60.16
16431;BME280;8325;49.284;7.238;2023-08-21T18:20:35;99100.38;;;28.05;60.29
16431;BME280;8325;49.284;7.238;2023-08-21T18:24:53;99103.63;;;27.92;61.00
16431;BME280;8325;49.284;7.238;2023-08-21T18:29:04;99097.78;;;27.74;69.45
16431;BME280;8325;49.284;7.238;2023-08-21T18:33:16;99097.31;;;27.42;74.87
16431;BME280;8325;49.284;7.238;2023-08-21T18:37:28;99097.84;;;27.18;78.06
16431;BME280;8325;49.284;7.238;2023-08-21T18:41:39;99094.63;;;26.91;80.76
16431;BME280;8325;49.284;7.238;2023-08-21T18:45:55;99106.41;;;26.74;82.17
16431;BME280;8325;49.284;7.238;2023-08-21T18:50:07;99110.13;;;26.58;83.78
16431;BME280;8325;49.284;7.238;2023-08-21T18:54:19;99122.88;;;26.30;85.46
16431;BME280;8325;49.284;7.238;2023-08-21T18:58:36;99121.25;;;26.19;86.71
16431;BME280;8325;49.284;7.238;2023-08-21T19:02:47;99125.44;;;26.00;88.45
16431;BME280;8325;49.284;7.238;2023-08-21T19:06:59;99133.13;;;25.86;89.28
16431;BME280;8325;49.284;7.238;2023-08-21T19:11:17;99131.16;;;25.71;89.58
16431;BME280;8325;49.284;7.238;2023-08-21T19:15:29;99133.22;;;25.59;89.65
16431;BME280;8325;49.284;7.238;2023-08-21T19:19:41;99140.13;;;25.49;90.77
16431;BME280;8325;49.284;7.238;2023-08-21T19:23:52;99138.38;;;25.28;91.65
16431;BME280;8325;49.284;7.238;2023-08-21T19:28:04;99137.75;;;25.21;91.87
16431;BME280;8325;49.284;7.238;2023-08-21T19:32:17;99144.81;;;25.05;93.12
16431;BME280;8325;49.284;7.238;2023-08-21T19:36:28;99139.41;;;25.00;93.31
16431;BME280;8325;49.284;7.238;2023-08-21T19:40:40;99142.78;;;24.85;94.35
16431;BME280;8325;49.284;7.238;2023-08-21T19:44:54;99135.72;;;24.74;95.22
16431;BME280;8325;49.284;7.238;2023-08-21T19:49:06;99147.34;;;24.63;96.44
16431;BME280;8325;49.284;7.238;2023-08-21T19:53:17;99152.56;;;24.52;97.08
16431;BME280;8325;49.284;7.238;2023-08-21T19:57:29;99150.34;;;24.44;97.32
16431;BME280;8325;49.284;7.238;2023-08-21T20:01:41;99155.84;;;24.38;97.66
16431;BME280;8325;49.284;7.238;2023-08-21T20:06:02;99156.81;;;24.26;98.35
16431;BME280;8325;49.284;7.238;2023-08-21T20:10:14;99163.06;;;24.15;98.59
16431;BME280;8325;49.284;7.238;2023-08-21T20:14:26;99153.59;;;24.07;98.78
16431;BME280;8325;49.284;7.238;2023-08-21T20:18:38;99160.50;;;24.03;99.23
16431;BME280;8325;49.284;7.238;2023-08-21T20:22:50;99161.97;;;23.94;100.00
16431;BME280;8325;49.284;7.238;2023-08-21T20:27:01;99169.91;;;23.89;100.00
16431;BME280;8325;49.284;7.238;2023-08-21T20:31:13;99165.72;;;23.76;100.00
16431;BME280;8325;49.284;7.238;2023-08-21T20:35:25;99164.75;;;23.65;100.00
16431;BME280;8325;49.284;7.238;2023-08-21T20:39:36;99163.78;;;23.55;100.00
16431;BME280;8325;49.284;7.238;2023-08-21T20:43:48;99162.56;;;23.46;100.00
16431;BME280;8325;49.284;7.238;2023-08-21T20:47:59;99156.91;;;23.42;100.00
16431;BME280;8325;49.284;7.238;2023-08-21T20:52:11;99151.91;;;23.29;100.00
16431;BME280;8325;49.284;7.238;2023-08-21T20:56:23;99147.56;;;23.23;100.00
16431;BME280;8325;49.284;7.238;2023-08-21T21:00:34;99154.00;;;23.10;100.00
16431;BME280;8325;49.284;7.238;2023-08-21T21:04:46;99153.13;;;23.04;100.00
16431;BME280;8325;49.284;7.238;2023-08-21T21:08:58;99149.88;;;23.02;100.00
16431;BME280;8325;49.284;7.238;2023-08-21T21:13:09;99152.47;;;22.97;100.00
16431;BME280;8325;49.284;7.238;2023-08-21T21:17:21;99153.75;;;22.94;100.00
16431;BME280;8325;49.284;7.238;2023-08-21T21:21:32;99154.00;;;22.81;100.00
16431;BME280;8325;49.284;7.238;2023-08-21T21:25:44;99165.06;;;22.73;100.00
16431;BME280;8325;49.284;7.238;2023-08-21T21:29:55;99174.78;;;22.67;100.00
